sensor_id;sensor_type;location;lat;lon;timestamp;pressure;altitude;pressure_sealevel;temperature;humidity
39223;BME280;24936;46.328;11.026;2022-09-30T00:01:08;93250.31;;;9.14;100.00
39223;BME280;24936;46.328;11.026;2022-09-30T00:03:34;93247.41;;;9.25;100.00
39223;BME280;24936;46.328;11.026;2022-09-30T00:06:05;93243.19;;;9.24;100.00
39223;BME280;24936;46.328;11.026;2022-09-30T00:08:31;93247.91;;;9.20;100.00
39223;BME280;24936;46.328;11.026;2022-09-30T00:11:04;93244.09;;;9.17;100.00
39223;BME280;24936;46.328;11.026;2022-09-30T00:13:32;93246.00;;;9.00;100.00
39223;BME280;24936;46.328;11.026;2022-09-30T00:15:58;93257.78;;;8.90;100.00
39223;BME280;24936;46.328;11.026;2022-09-30T00:18:25;93252.97;;;8.82;100.00
39223;BME280;24936;46.328;11.026;2022-09-30T00:20:50;93250.81;;;8.73;100.00
39223;BME280;24936;46.328;11.026;2022-09-30T00:23:17;93257.03;;;8.70;100.00
39223;BME280;24936;46.328;11.026;2022-09-30T00:25:43;93262.09;;;8.68;100.00
39223;BME280;24936;46.328;11.026;2022-09-30T00:28:08;93267.97;;;8.63;100.00
39223;BME280;24936;46.328;11.026;2022-09-30T00:30:34;93270.78;;;8.95;100.00
39223;BME280;24936;46.328;11.026;2022-09-30T00:33:00;93269.75;;;8.89;100.00
39223;BME280;24936;46.328;11.026;2022-09-30T00:35:25;93271.59;;;8.92;100.00
39223;BME280;24936;46.328;11.026;2022-09-30T00:37:51;93263.34;;;8.99;100.00
39223;BME280;24936;46.328;11.026;2022-09-30T00:40:18;93263.72;;;9.01;100.00
39223;BME280;24936;46.328;11.026;2022-09-30T00:42:44;93278.72;;;9.02;100.00
39223;BME280;24936;46.328;11.026;2022-09-30T00:45:11;93274.03;;;8.87;100.00
39223;BME280;24936;46.328;11.026;2022-09-30T00:52:58;93281.44;;;8.83;100.00
39223;BME280;24936;46.328;11.026;2022-09-30T00:58:00;93277.84;;;8.89;100.00
39223;BME280;24936;46.328;11.026;2022-09-30T01:00:27;93286.66;;;9.10;100.00
39223;BME280;24936;46.328;11.026;2022-09-30T01:02:53;93275.75;;;8.97;100.00
39223;BME280;24936;46.328;11.026;2022-09-30T01:05:19;93267.88;;;8.86;100.00
39223;BME280;24936;46.328;11.026;2022-09-30T01:07:45;93280.88;;;8.91;100.00
39223;BME280;24936;46.328;11.026;2022-09-30T01:10:11;93282.75;;;8.94;100.00
39223;BME280;24936;46.328;11.026;2022-09-30T01:12:37;93273.69;;;8.85;100.00
39223;BME280;24936;46.328;11.026;2022-09-30T01:15:03;93283.47;;;8.78;100.00
39223;BME280;24936;46.328;11.026;2022-09-30T01:18:01;93280.13;;;8.91;100.00
39223;BME280;24936;46.328;11.026;2022-09-30T01:20:59;93285.38;;;8.98;100.00
39223;BME280;24936;46.328;11.026;2022-09-30T01:26:35;93291.03;;;9.03;100.00
39223;BME280;24936;46.328;11.026;2022-09-30T01:29:26;93302.09;;;9.09;100.00
39223;BME280;24936;46.328;11.026;2022-09-30T01:32:14;93297.56;;;8.86;100.00
39223;BME280;24936;46.328;11.026;2022-09-30T01:34:58;93299.22;;;8.80;100.00
39223;BME280;24936;46.328;11.026;2022-09-30T01:37:38;93298.88;;;8.78;100.00
39223;BME280;24936;46.328;11.026;2022-09-30T01:45:32;93313.97;;;8.56;100.00
39223;BME280;24936;46.328;11.026;2022-09-30T01:48:02;93314.28;;;8.58;100.00
39223;BME280;24936;46.328;11.026;2022-09-30T01:50:52;93310.34;;;8.62;100.00
39223;BME280;24936;46.328;11.026;2022-09-30T01:53:35;93315.81;;;8.59;100.00
39223;BME280;24936;46.328;11.026;2022-09-30T01:58:50;93318.47;;;8.82;100.00
39223;BME280;24936;46.328;11.026;2022-09-30T02:01:32;93319.84;;;8.90;100.00
39223;BME280;24936;46.328;11.026;2022-09-30T02:04:07;93334.75;;;8.95;100.00
39223;BME280;24936;46.328;11.026;2022-09-30T02:06:38;93334.16;;;8.87;100.00
39223;BME280;24936;46.328;11.026;2022-09-30T02:09:18;93339.13;;;8.69;100.00
39223;BME280;24936;46.328;11.026;2022-09-30T02:11:47;93334.22;;;8.64;100.00
39223;BME280;24936;46.328;11.026;2022-09-30T02:14:24;93330.00;;;8.63;100.00
39223;BME280;24936;46.328;11.026;2022-09-30T02:16:56;93335.16;;;8.53;100.00
39223;BME280;24936;46.328;11.026;2022-09-30T02:21:59;93348.88;;;8.63;100.00
39223;BME280;24936;46.328;11.026;2022-09-30T02:24:29;93353.84;;;8.64;100.00
39223;BME280;24936;46.328;11.026;2022-09-30T02:26:57;93354.66;;;8.61;100.00
39223;BME280;24936;46.328;11.026;2022-09-30T02:29:28;93355.44;;;8.62;100.00
39223;BME280;24936;46.328;11.026;2022-09-30T02:32:01;93361.09;;;8.47;100.00
39223;BME280;24936;46.328;11.026;2022-09-30T02:34:38;93364.19;;;8.46;100.00
39223;BME280;24936;46.328;11.026;2022-09-30T02:37:27;93357.75;;;8.40;100.00
39223;BME280;24936;46.328;11.026;2022-09-30T02:40:17;93358.25;;;8.31;100.00
39223;BME280;24936;46.328;11.026;2022-09-30T02:42:47;93362.72;;;8.18;100.00
39223;BME280;24936;46.328;11.026;2022-09-30T02:45:15;93363.47;;;8.18;100.00
39223;BME280;24936;46.328;11.026;2022-09-30T02:47:55;93361.66;;;8.12;100.00
39223;BME280;24936;46.328;11.026;2022-09-30T02:54:01;93374.56;;;8.47;100.00
39223;BME280;24936;46.328;11.026;2022-09-30T02:59:03;93380.41;;;8.42;100.00
39223;BME280;24936;46.328;11.026;2022-09-30T03:01:29;93383.19;;;8.35;100.00
39223;BME280;24936;46.328;11.026;2022-09-30T03:04:04;93382.44;;;8.35;100.00
39223;BME280;24936;46.328;11.026;2022-09-30T03:06:33;93378.31;;;8.53;100.00
39223;BME280;24936;46.328;11.026;2022-09-30T03:09:00;93378.59;;;8.59;100.00
39223;BME280;24936;46.328;11.026;2022-09-30T03:11:27;93378.78;;;8.48;100.00
39223;BME280;24936;46.328;11.026;2022-09-30T03:19:44;93389.91;;;8.50;100.00
39223;BME280;24936;46.328;11.026;2022-09-30T03:25:26;93384.88;;;8.29;100.00
39223;BME280;24936;46.328;11.026;2022-09-30T03:30:57;93395.94;;;8.35;100.00
39223;BME280;24936;46.328;11.026;2022-09-30T03:33:54;93396.59;;;8.42;100.00
39223;BME280;24936;46.328;11.026;2022-09-30T03:36:38;93403.78;;;8.25;100.00
39223;BME280;24936;46.328;11.026;2022-09-30T03:41:47;93404.88;;;8.04;100.00
39223;BME280;24936;46.328;11.026;2022-09-30T03:44:41;93412.47;;;8.13;100.00
39223;BME280;24936;46.328;11.026;2022-09-30T03:47:11;93411.16;;;8.21;100.00
39223;BME280;24936;46.328;11.026;2022-09-30T03:49:47;93412.50;;;8.10;100.00
39223;BME280;24936;46.328;11.026;2022-09-30T03:52:15;93403.59;;;8.13;100.00
39223;BME280;24936;46.328;11.026;2022-09-30T03:54:47;93409.22;;;8.22;100.00
39223;BME280;24936;46.328;11.026;2022-09-30T03:57:14;93417.38;;;8.18;100.00
39223;BME280;24936;46.328;11.026;2022-09-30T03:59:39;93416.09;;;8.26;100.00
39223;BME280;24936;46.328;11.026;2022-09-30T04:02:04;93416.03;;;8.30;100.00
39223;BME280;24936;46.328;11.026;2022-09-30T04:04:38;93423.31;;;8.33;100.00
39223;BME280;24936;46.328;11.026;2022-09-30T04:07:05;93428.28;;;8.35;100.00
39223;BME280;24936;46.328;11.026;2022-09-30T04:09:30;93427.94;;;8.33;100.00
39223;BME280;24936;46.328;11.026;2022-09-30T04:11:56;93425.63;;;8.31;100.00
39223;BME280;24936;46.328;11.026;2022-09-30T04:14:21;93421.53;;;8.23;100.00
39223;BME280;24936;46.328;11.026;2022-09-30T04:16:47;93429.66;;;8.19;100.00
39223;BME280;24936;46.328;11.026;2022-09-30T04:19:12;93443.56;;;8.18;100.00
39223;BME280;24936;46.328;11.026;2022-09-30T04:21:37;93445.13;;;8.15;100.00
39223;BME280;24936;46.328;11.026;2022-09-30T04:24:03;93450.22;;;8.10;100.00
39223;BME280;24936;46.328;11.026;2022-09-30T04:26:28;93452.22;;;8.05;100.00
39223;BME280;24936;46.328;11.026;2022-09-30T04:28:54;93460.75;;;8.00;100.00
39223;BME280;24936;46.328;11.026;2022-09-30T04:31:23;93454.03;;;8.12;100.00
39223;BME280;24936;46.328;11.026;2022-09-30T04:33:48;93460.16;;;8.13;100.00
39223;BME280;24936;46.328;11.026;2022-09-30T04:36:15;93453.63;;;8.14;100.00
39223;BME280;24936;46.328;11.026;2022-09-30T04:38:40;93455.84;;;8.19;100.00
39223;BME280;24936;46.328;11.026;2022-09-30T04:41:06;93466.28;;;8.17;100.00
39223;BME280;24936;46.328;11.026;2022-09-30T04:43:32;93460.53;;;8.15;100.00
39223;BME280;24936;46.328;11.026;2022-09-30T04:45:58;93462.16;;;8.09;100.00
39223;BME280;24936;46.328;11.026;2022-09-30T04:48:24;93461.72;;;8.14;100.00
39223;BME280;24936;46.328;11.026;2022-09-30T04:50:50;93467.16;;;8.10;100.00
39223;BME280;24936;46.328;11.026;2022-09-30T04:53:16;93477.41;;;8.19;100.00
39223;BME280;24936;46.328;11.026;2022-09-30T04:55:43;93472.84;;;8.16;100.00
39223;BME280;24936;46.328;11.026;2022-09-30T04:58:09;93470.50;;;8.18;100.00
39223;BME280;24936;46.328;11.026;2022-09-30T05:00:34;93470.56;;;8.14;100.00
39223;BME280;24936;46.328;11.026;2022-09-30T05:03:00;93479.44;;;8.11;100.00
39223;BME280;24936;46.328;11.026;2022-09-30T05:05:25;93482.63;;;8.06;100.00
39223;BME280;24936;46.328;11.026;2022-09-30T05:07:50;93487.13;;;8.13;100.00
39223;BME280;24936;46.328;11.026;2022-09-30T05:10:16;93487.06;;;8.16;100.00
39223;BME280;24936;46.328;11.026;2022-09-30T05:12:41;93486.03;;;8.10;100.00
39223;BME280;24936;46.328;11.026;2022-09-30T05:15:08;93495.56;;;8.15;100.00
39223;BME280;24936;46.328;11.026;2022-09-30T05:17:33;93500.53;;;8.16;100.00
39223;BME280;24936;46.328;11.026;2022-09-30T05:19:58;93494.75;;;8.18;100.00
39223;BME280;24936;46.328;11.026;2022-09-30T05:22:25;93500.91;;;8.18;100.00
39223;BME280;24936;46.328;11.026;2022-09-30T05:24:51;93509.41;;;8.17;100.00
39223;BME280;24936;46.328;11.026;2022-09-30T05:27:17;93520.25;;;8.13;100.00
39223;BME280;24936;46.328;11.026;2022-09-30T05:29:42;93526.19;;;8.28;100.00
39223;BME280;24936;46.328;11.026;2022-09-30T05:32:08;93528.09;;;8.27;100.00
39223;BME280;24936;46.328;11.026;2022-09-30T05:34:34;93535.09;;;8.25;100.00
39223;BME280;24936;46.328;11.026;2022-09-30T05:36:59;93540.16;;;8.19;100.00
39223;BME280;24936;46.328;11.026;2022-09-30T05:39:30;93537.88;;;8.18;100.00
39223;BME280;24936;46.328;11.026;2022-09-30T05:41:58;93545.16;;;8.21;100.00
39223;BME280;24936;46.328;11.026;2022-09-30T05:44:24;93550.78;;;8.30;100.00
39223;BME280;24936;46.328;11.026;2022-09-30T05:46:49;93545.34;;;8.34;100.00
39223;BME280;24936;46.328;11.026;2022-09-30T05:49:15;93545.66;;;8.39;100.00
39223;BME280;24936;46.328;11.026;2022-09-30T05:51:40;93543.78;;;8.36;100.00
39223;BME280;24936;46.328;11.026;2022-09-30T05:54:06;93556.19;;;8.30;100.00
39223;BME280;24936;46.328;11.026;2022-09-30T05:56:32;93558.88;;;8.30;100.00
39223;BME280;24936;46.328;11.026;2022-09-30T05:58:59;93556.59;;;8.28;100.00
39223;BME280;24936;46.328;11.026;2022-09-30T06:01:25;93551.44;;;8.41;100.00
39223;BME280;24936;46.328;11.026;2022-09-30T06:03:50;93569.53;;;8.68;100.00
39223;BME280;24936;46.328;11.026;2022-09-30T06:06:16;93576.34;;;8.76;100.00
39223;BME280;24936;46.328;11.026;2022-09-30T06:08:43;93570.13;;;8.79;100.00
39223;BME280;24936;46.328;11.026;2022-09-30T06:11:11;93578.88;;;8.87;100.00
39223;BME280;24936;46.328;11.026;2022-09-30T06:13:39;93576.88;;;8.91;100.00
39223;BME280;24936;46.328;11.026;2022-09-30T06:16:05;93570.19;;;8.99;100.00
39223;BME280;24936;46.328;11.026;2022-09-30T06:18:31;93575.19;;;9.00;100.00
39223;BME280;24936;46.328;11.026;2022-09-30T06:21:02;93581.16;;;9.12;100.00
39223;BME280;24936;46.328;11.026;2022-09-30T06:23:30;93589.19;;;9.15;100.00
39223;BME280;24936;46.328;11.026;2022-09-30T06:25:56;93585.28;;;9.20;100.00
39223;BME280;24936;46.328;11.026;2022-09-30T06:28:21;93594.44;;;9.26;100.00
39223;BME280;24936;46.328;11.026;2022-09-30T06:30:47;93592.72;;;9.36;100.00
39223;BME280;24936;46.328;11.026;2022-09-30T06:33:14;93597.78;;;9.53;100.00
39223;BME280;24936;46.328;11.026;2022-09-30T06:35:49;93597.47;;;9.51;100.00
39223;BME280;24936;46.328;11.026;2022-09-30T06:38:14;93592.28;;;9.61;100.00
39223;BME280;24936;46.328;11.026;2022-09-30T06:41:07;93599.69;;;9.76;100.00
39223;BME280;24936;46.328;11.026;2022-09-30T06:43:44;93604.06;;;9.90;100.00
39223;BME280;24936;46.328;11.026;2022-09-30T06:46:10;93606.16;;;9.83;100.00
39223;BME280;24936;46.328;11.026;2022-09-30T06:48:37;93601.56;;;9.80;100.00
39223;BME280;24936;46.328;11.026;2022-09-30T06:51:02;93611.97;;;10.01;100.00
39223;BME280;24936;46.328;11.026;2022-09-30T06:53:28;93604.75;;;10.14;100.00
39223;BME280;24936;46.328;11.026;2022-09-30T06:55:55;93607.97;;;10.09;100.00
39223;BME280;24936;46.328;11.026;2022-09-30T06:58:21;93614.75;;;10.17;100.00
39223;BME280;24936;46.328;11.026;2022-09-30T07:01:13;93609.69;;;9.99;100.00
39223;BME280;24936;46.328;11.026;2022-09-30T07:03:41;93609.16;;;9.88;100.00
39223;BME280;24936;46.328;11.026;2022-09-30T07:06:07;93614.69;;;9.81;100.00
39223;BME280;24936;46.328;11.026;2022-09-30T07:08:35;93618.69;;;9.93;100.00
39223;BME280;24936;46.328;11.026;2022-09-30T07:11:08;93613.97;;;10.17;100.00
39223;BME280;24936;46.328;11.026;2022-09-30T07:13:44;93613.22;;;10.16;100.00
39223;BME280;24936;46.328;11.026;2022-09-30T07:16:11;93621.59;;;10.22;100.00
39223;BME280;24936;46.328;11.026;2022-09-30T07:18:38;93628.00;;;10.32;100.00
39223;BME280;24936;46.328;11.026;2022-09-30T07:21:06;93630.19;;;10.17;100.00
39223;BME280;24936;46.328;11.026;2022-09-30T07:23:31;93644.28;;;10.08;100.00
39223;BME280;24936;46.328;11.026;2022-09-30T07:25:59;93652.16;;;9.99;100.00
39223;BME280;24936;46.328;11.026;2022-09-30T07:28:31;93650.16;;;10.03;100.00
39223;BME280;24936;46.328;11.026;2022-09-30T07:30:58;93651.31;;;9.82;100.00
39223;BME280;24936;46.328;11.026;2022-09-30T07:33:26;93665.31;;;9.77;100.00
39223;BME280;24936;46.328;11.026;2022-09-30T07:35:56;93673.00;;;9.79;100.00
39223;BME280;24936;46.328;11.026;2022-09-30T07:38:24;93672.84;;;9.66;100.00
39223;BME280;24936;46.328;11.026;2022-09-30T07:40:59;93665.78;;;9.72;100.00
39223;BME280;24936;46.328;11.026;2022-09-30T07:43:27;93673.44;;;9.77;100.00
39223;BME280;24936;46.328;11.026;2022-09-30T07:46:12;93679.88;;;9.83;100.00
39223;BME280;24936;46.328;11.026;2022-09-30T07:48:39;93681.75;;;10.06;100.00
39223;BME280;24936;46.328;11.026;2022-09-30T07:51:29;93690.03;;;10.19;100.00
39223;BME280;24936;46.328;11.026;2022-09-30T07:53:58;93688.09;;;10.19;100.00
39223;BME280;24936;46.328;11.026;2022-09-30T07:56:24;93703.56;;;10.19;100.00
39223;BME280;24936;46.328;11.026;2022-09-30T07:58:58;93712.13;;;10.14;100.00
39223;BME280;24936;46.328;11.026;2022-09-30T08:01:25;93721.00;;;10.14;100.00
39223;BME280;24936;46.328;11.026;2022-09-30T08:03:56;93719.97;;;10.08;100.00
39223;BME280;24936;46.328;11.026;2022-09-30T08:06:23;93727.50;;;9.97;100.00
39223;BME280;24936;46.328;11.026;2022-09-30T08:08:51;93730.53;;;9.99;100.00
39223;BME280;24936;46.328;11.026;2022-09-30T08:11:17;93736.16;;;9.88;100.00
39223;BME280;24936;46.328;11.026;2022-09-30T08:13:42;93731.63;;;9.82;100.00
39223;BME280;24936;46.328;11.026;2022-09-30T08:16:08;93741.56;;;9.88;100.00
39223;BME280;24936;46.328;11.026;2022-09-30T08:18:33;93745.88;;;10.06;100.00
39223;BME280;24936;46.328;11.026;2022-09-30T08:21:03;93750.56;;;10.25;100.00
39223;BME280;24936;46.328;11.026;2022-09-30T08:23:29;93753.09;;;10.36;100.00
39223;BME280;24936;46.328;11.026;2022-09-30T08:26:21;93752.13;;;10.66;100.00
39223;BME280;24936;46.328;11.026;2022-09-30T08:28:46;93753.44;;;10.78;100.00
39223;BME280;24936;46.328;11.026;2022-09-30T08:31:16;93764.81;;;10.89;100.00
39223;BME280;24936;46.328;11.026;2022-09-30T08:33:42;93761.53;;;10.97;100.00
39223;BME280;24936;46.328;11.026;2022-09-30T08:38:40;93768.63;;;10.91;100.00
39223;BME280;24936;46.328;11.026;2022-09-30T08:52:23;93767.31;;;11.00;100.00
39223;BME280;24936;46.328;11.026;2022-09-30T08:54:54;93769.81;;;10.90;100.00
39223;BME280;24936;46.328;11.026;2022-09-30T08:57:22;93789.50;;;11.11;100.00
39223;BME280;24936;46.328;11.026;2022-09-30T08:59:52;93792.44;;;11.00;100.00
39223;BME280;24936;46.328;11.026;2022-09-30T09:05:55;93803.88;;;11.08;100.00
39223;BME280;24936;46.328;11.026;2022-09-30T09:08:33;93796.47;;;11.28;100.00
39223;BME280;24936;46.328;11.026;2022-09-30T09:17:38;93790.47;;;12.22;100.00
39223;BME280;24936;46.328;11.026;2022-09-30T09:19:44;93790.13;;;12.36;100.00
39223;BME280;24936;46.328;11.026;2022-09-30T09:22:12;93791.31;;;12.19;100.00
39223;BME280;24936;46.328;11.026;2022-09-30T09:24:43;93808.69;;;12.05;100.00
39223;BME280;24936;46.328;11.026;2022-09-30T09:27:20;93814.34;;;12.27;100.00
39223;BME280;24936;46.328;11.026;2022-09-30T09:30:02;93810.97;;;12.68;100.00
39223;BME280;24936;46.328;11.026;2022-09-30T09:32:30;93787.59;;;12.87;100.00
39223;BME280;24936;46.328;11.026;2022-09-30T09:34:59;93786.84;;;13.54;100.00
39223;BME280;24936;46.328;11.026;2022-09-30T09:37:39;93766.00;;;13.51;100.00
39223;BME280;24936;46.328;11.026;2022-09-30T09:40:42;93768.69;;;13.64;100.00
39223;BME280;24936;46.328;11.026;2022-09-30T09:47:00;93779.81;;;13.15;100.00
39223;BME280;24936;46.328;11.026;2022-09-30T09:49:28;93787.78;;;12.80;100.00
39223;BME280;24936;46.328;11.026;2022-09-30T09:52:04;93797.69;;;12.87;100.00
39223;BME280;24936;46.328;11.026;2022-09-30T09:54:44;93799.78;;;12.96;100.00
39223;BME280;24936;46.328;11.026;2022-09-30T09:57:14;93809.66;;;12.60;100.00
39223;BME280;24936;46.328;11.026;2022-09-30T10:02:57;93807.06;;;12.24;100.00
39223;BME280;24936;46.328;11.026;2022-09-30T10:05:23;93807.91;;;12.37;100.00
39223;BME280;24936;46.328;11.026;2022-09-30T10:08:17;93813.75;;;12.52;100.00
39223;BME280;24936;46.328;11.026;2022-09-30T10:13:16;93813.69;;;12.23;100.00
39223;BME280;24936;46.328;11.026;2022-09-30T10:15:42;93811.38;;;12.38;100.00
39223;BME280;24936;46.328;11.026;2022-09-30T10:18:16;93814.50;;;12.53;100.00
39223;BME280;24936;46.328;11.026;2022-09-30T10:20:49;93815.56;;;12.55;100.00
39223;BME280;24936;46.328;11.026;2022-09-30T10:23:27;93810.81;;;12.30;100.00
39223;BME280;24936;46.328;11.026;2022-09-30T10:28:47;93810.44;;;13.03;100.00
39223;BME280;24936;46.328;11.026;2022-09-30T10:31:35;93817.72;;;13.73;100.00
39223;BME280;24936;46.328;11.026;2022-09-30T10:34:10;93803.38;;;13.98;100.00
39223;BME280;24936;46.328;11.026;2022-09-30T10:36:41;93800.44;;;14.05;100.00
39223;BME280;24936;46.328;11.026;2022-09-30T10:39:24;93800.75;;;13.95;100.00
39223;BME280;24936;46.328;11.026;2022-09-30T10:42:02;93803.56;;;14.17;100.00
39223;BME280;24936;46.328;11.026;2022-09-30T10:44:37;93801.59;;;14.17;100.00
39223;BME280;24936;46.328;11.026;2022-09-30T10:47:06;93805.25;;;13.63;100.00
39223;BME280;24936;46.328;11.026;2022-09-30T10:49:40;93805.44;;;13.69;100.00
39223;BME280;24936;46.328;11.026;2022-09-30T10:52:28;93805.00;;;13.83;100.00
39223;BME280;24936;46.328;11.026;2022-09-30T10:58:44;93802.28;;;14.56;100.00
39223;BME280;24936;46.328;11.026;2022-09-30T11:01:21;93793.53;;;14.74;100.00
39223;BME280;24936;46.328;11.026;2022-09-30T11:07:00;93804.53;;;14.70;100.00
39223;BME280;24936;46.328;11.026;2022-09-30T11:09:56;93799.97;;;14.67;100.00
39223;BME280;24936;46.328;11.026;2022-09-30T11:28:31;93810.13;;;14.41;100.00
39223;BME280;24936;46.328;11.026;2022-09-30T11:48:19;93801.56;;;14.30;100.00
39223;BME280;24936;46.328;11.026;2022-09-30T11:56:51;93812.19;;;14.62;100.00
39223;BME280;24936;46.328;11.026;2022-09-30T12:03:05;93805.53;;;14.63;100.00
39223;BME280;24936;46.328;11.026;2022-09-30T12:05:43;93797.47;;;14.60;100.00
39223;BME280;24936;46.328;11.026;2022-09-30T12:08:23;93806.97;;;14.55;100.00
39223;BME280;24936;46.328;11.026;2022-09-30T12:11:03;93800.72;;;14.68;100.00
39223;BME280;24936;46.328;11.026;2022-09-30T12:13:53;93800.94;;;14.73;100.00
39223;BME280;24936;46.328;11.026;2022-09-30T12:16:40;93796.00;;;14.81;100.00
39223;BME280;24936;46.328;11.026;2022-09-30T12:19:40;93791.81;;;14.89;100.00
39223;BME280;24936;46.328;11.026;2022-09-30T12:22:13;93795.94;;;15.16;100.00
39223;BME280;24936;46.328;11.026;2022-09-30T12:24:43;93778.94;;;15.11;100.00
39223;BME280;24936;46.328;11.026;2022-09-30T12:27:35;93789.78;;;15.24;100.00
39223;BME280;24936;46.328;11.026;2022-09-30T12:30:17;93797.06;;;15.05;100.00
39223;BME280;24936;46.328;11.026;2022-09-30T12:43:28;93816.06;;;14.14;100.00
39223;BME280;24936;46.328;11.026;2022-09-30T12:46:21;93822.06;;;13.96;100.00
39223;BME280;24936;46.328;11.026;2022-09-30T12:49:04;93830.03;;;13.90;100.00
39223;BME280;24936;46.328;11.026;2022-09-30T12:51:34;93832.97;;;13.83;100.00
39223;BME280;24936;46.328;11.026;2022-09-30T12:54:21;93837.97;;;13.72;100.00
39223;BME280;24936;46.328;11.026;2022-09-30T12:56:55;93845.34;;;13.59;100.00
39223;BME280;24936;46.328;11.026;2022-09-30T13:03:15;93837.63;;;13.45;100.00
39223;BME280;24936;46.328;11.026;2022-09-30T13:05:52;93841.28;;;13.38;100.00
39223;BME280;24936;46.328;11.026;2022-09-30T13:24:05;93845.97;;;13.08;100.00
39223;BME280;24936;46.328;11.026;2022-09-30T13:33:44;93853.81;;;13.06;100.00
39223;BME280;24936;46.328;11.026;2022-09-30T13:47:27;93870.56;;;13.17;100.00
39223;BME280;24936;46.328;11.026;2022-09-30T13:50:05;93876.47;;;13.00;100.00
39223;BME280;24936;46.328;11.026;2022-09-30T13:52:36;93871.88;;;13.13;100.00
39223;BME280;24936;46.328;11.026;2022-09-30T13:55:08;93877.22;;;13.00;100.00
39223;BME280;24936;46.328;11.026;2022-09-30T13:57:49;93881.78;;;12.90;100.00
39223;BME280;24936;46.328;11.026;2022-09-30T14:00:18;93882.00;;;12.96;100.00
39223;BME280;24936;46.328;11.026;2022-09-30T14:08:50;93887.56;;;12.76;100.00
39223;BME280;24936;46.328;11.026;2022-09-30T14:16:38;93878.16;;;12.64;100.00
39223;BME280;24936;46.328;11.026;2022-09-30T14:19:24;93874.44;;;12.75;100.00
39223;BME280;24936;46.328;11.026;2022-09-30T14:21:57;93893.84;;;12.73;100.00
39223;BME280;24936;46.328;11.026;2022-09-30T14:24:30;93893.09;;;12.73;100.00
39223;BME280;24936;46.328;11.026;2022-09-30T14:32:53;93893.84;;;12.73;100.00
39223;BME280;24936;46.328;11.026;2022-09-30T14:35:04;93891.66;;;12.68;100.00
39223;BME280;24936;46.328;11.026;2022-09-30T14:37:34;93883.41;;;12.72;100.00
39223;BME280;24936;46.328;11.026;2022-09-30T14:40:07;93896.06;;;12.78;100.00
39223;BME280;24936;46.328;11.026;2022-09-30T14:42:36;93903.69;;;12.83;100.00
39223;BME280;24936;46.328;11.026;2022-09-30T14:45:04;93904.00;;;12.85;100.00
39223;BME280;24936;46.328;11.026;2022-09-30T14:47:46;93899.09;;;12.80;100.00
39223;BME280;24936;46.328;11.026;2022-09-30T14:50:17;93903.88;;;12.60;100.00
39223;BME280;24936;46.328;11.026;2022-09-30T14:52:46;93914.72;;;12.60;100.00
39223;BME280;24936;46.328;11.026;2022-09-30T14:55:28;93910.16;;;12.57;100.00
39223;BME280;24936;46.328;11.026;2022-09-30T14:58:37;93909.03;;;12.71;100.00
39223;BME280;24936;46.328;11.026;2022-09-30T15:01:06;93914.53;;;12.83;100.00
39223;BME280;24936;46.328;11.026;2022-09-30T15:03:37;93920.66;;;12.71;100.00
39223;BME280;24936;46.328;11.026;2022-09-30T15:06:05;93919.31;;;12.47;100.00
39223;BME280;24936;46.328;11.026;2022-09-30T15:08:40;93933.16;;;12.52;100.00
39223;BME280;24936;46.328;11.026;2022-09-30T15:11:09;93939.81;;;12.48;100.00
39223;BME280;24936;46.328;11.026;2022-09-30T15:13:41;93947.38;;;12.40;100.00
39223;BME280;24936;46.328;11.026;2022-09-30T15:16:28;93948.63;;;12.19;100.00
39223;BME280;24936;46.328;11.026;2022-09-30T15:18:54;93959.09;;;12.01;100.00
39223;BME280;24936;46.328;11.026;2022-09-30T15:21:25;93961.88;;;11.97;100.00
39223;BME280;24936;46.328;11.026;2022-09-30T15:23:53;93965.34;;;11.98;100.00
39223;BME280;24936;46.328;11.026;2022-09-30T15:26:21;93961.06;;;12.00;100.00
39223;BME280;24936;46.328;11.026;2022-09-30T15:28:48;93962.34;;;12.12;100.00
39223;BME280;24936;46.328;11.026;2022-09-30T15:31:19;93962.13;;;12.23;100.00
39223;BME280;24936;46.328;11.026;2022-09-30T15:33:46;93966.50;;;12.16;100.00
39223;BME280;24936;46.328;11.026;2022-09-30T15:36:17;93970.31;;;12.19;100.00
39223;BME280;24936;46.328;11.026;2022-09-30T15:38:48;93974.03;;;12.09;100.00
39223;BME280;24936;46.328;11.026;2022-09-30T15:41:15;93976.59;;;12.16;100.00
39223;BME280;24936;46.328;11.026;2022-09-30T15:43:43;93968.81;;;12.34;100.00
39223;BME280;24936;46.328;11.026;2022-09-30T15:46:31;93968.47;;;12.32;100.00
39223;BME280;24936;46.328;11.026;2022-09-30T15:49:32;93976.50;;;12.19;100.00
39223;BME280;24936;46.328;11.026;2022-09-30T15:52:18;93983.28;;;12.11;100.00
39223;BME280;24936;46.328;11.026;2022-09-30T15:54:44;93981.47;;;12.05;100.00
39223;BME280;24936;46.328;11.026;2022-09-30T15:57:44;93979.00;;;11.94;100.00
39223;BME280;24936;46.328;11.026;2022-09-30T16:00:46;93975.81;;;11.79;100.00
39223;BME280;24936;46.328;11.026;2022-09-30T16:05:44;93992.28;;;11.68;100.00
39223;BME280;24936;46.328;11.026;2022-09-30T16:08:21;93994.28;;;11.64;100.00
39223;BME280;24936;46.328;11.026;2022-09-30T16:10:50;93990.88;;;11.60;100.00
39223;BME280;24936;46.328;11.026;2022-09-30T16:13:21;93996.44;;;11.53;100.00
39223;BME280;24936;46.328;11.026;2022-09-30T16:15:50;93997.75;;;11.65;100.00
39223;BME280;24936;46.328;11.026;2022-09-30T16:18:18;93993.81;;;11.50;100.00
39223;BME280;24936;46.328;11.026;2022-09-30T16:20:58;94007.53;;;11.39;100.00
39223;BME280;24936;46.328;11.026;2022-09-30T16:23:35;94014.03;;;11.21;100.00
39223;BME280;24936;46.328;11.026;2022-09-30T16:26:18;94014.25;;;11.11;100.00